Rozetta, Illinois
Current Conditions -  °F | °C
As of 10:15 AM on Sunday 23 Nov 2014 (Local Time) from KGBG Reporting Station
Drizzle Drizzle  
Wind Chill: 46°   Ceiling: 3700
Heat Index: 49°   Visibility: 10mi
Dew Point: 47°   Wind: 7mph
Humidity: 92%   Direction: 140°SE
Pressure: 29.59"   Gusts: NA
Location:  40.8511°N, 90.7293°W
Report Text: KGBG 231615Z AUTO 14006KT 10SM DZ OVC037 10/08 A2959 RMK AO2 T00950083
Loading
Personal Weather Stations






























Interactive Weather Map New forecast layout! Learn more

10-Day Weather Forecast

Advertisements
Track Severe Weather on mobile